Time;durP1;ratioP1;P1;durP2;ratioP2;P2;SDS_P1;SDS_P2;PMS_P1;PMS_P2;Temp;Humidity;BMP_temperature;BMP_pressure;BME280_temperature;BME280_humidity;BME280_pressure;Samples;Min_cycle;Max_cycle;Signal;HPM_P1;HPM_P2
2023/05/10 00:01:11;;;;;;;3.50;1.50;;;14.50;99.90;;;;;;5108932;28;20540;-72
2023/05/10 00:03:38;;;;;;;1.70;0.87;;;14.20;99.90;;;;;;5109224;28;21012;-72
2023/05/10 00:06:04;;;;;;;1.93;0.80;;;14.40;99.90;;;;;;5110123;28;20478;-73
2023/05/10 00:08:31;;;;;;;2.33;0.97;;;14.30;99.90;;;;;;5109724;28;20479;-72
2023/05/10 00:10:58;;;;;;;1.80;0.70;;;14.40;99.90;;;;;;5109650;28;20455;-72
2023/05/10 00:13:26;;;;;;;2.37;0.67;;;14.20;99.90;;;;;;5109969;28;20455;-74
2023/05/10 00:15:53;;;;;;;1.50;0.50;;;14.20;99.90;;;;;;5109055;28;20972;-74
2023/05/10 00:18:20;;;;;;;1.47;0.60;;;14.10;99.90;;;;;;5107303;28;20789;-73
2023/05/10 00:20:46;;;;;;;6.33;3.57;;;14.20;99.90;;;;;;5108499;28;21103;-72
2023/05/10 00:23:13;;;;;;;1.40;0.50;;;14.20;99.90;;;;;;5109263;28;20476;-73
2023/05/10 00:25:40;;;;;;;1.83;0.60;;;14.20;99.90;;;;;;5109280;28;20807;-73
2023/05/10 00:28:07;;;;;;;1.80;0.60;;;14.10;99.90;;;;;;5109779;28;20789;-75
2023/05/10 00:30:35;;;;;;;2.23;0.60;;;14.20;99.90;;;;;;5108803;28;20439;-72
2023/05/10 00:33:02;;;;;;;1.50;0.60;;;14.20;99.90;;;;;;5111793;28;20444;-72
2023/05/10 00:35:29;;;;;;;1.37;0.50;;;14.10;99.90;;;;;;5111574;28;20508;-72
2023/05/10 00:37:56;;;;;;;1.50;0.50;;;13.90;99.90;;;;;;5111098;28;21235;-72
2023/05/10 00:40:23;;;;;;;1.30;0.40;;;13.90;99.90;;;;;;5111523;28;20815;-72
2023/05/10 00:42:50;;;;;;;1.60;0.57;;;14.10;99.90;;;;;;5111039;28;20502;-72
2023/05/10 00:45:17;;;;;;;1.30;0.47;;;14.00;99.90;;;;;;5111854;28;20440;-73
2023/05/10 00:47:45;;;;;;;1.60;0.57;;;13.90;99.90;;;;;;5111404;28;20448;-72
2023/05/10 00:50:12;;;;;;;1.30;0.40;;;13.80;99.90;;;;;;5111454;28;20446;-72
2023/05/10 00:52:39;;;;;;;1.50;0.60;;;13.70;99.90;;;;;;5110939;28;20478;-71
2023/05/10 00:55:07;;;;;;;1.40;0.50;;;13.80;99.90;;;;;;5111842;28;20444;-73
2023/05/10 00:57:34;;;;;;;1.40;0.60;;;13.80;99.90;;;;;;5111166;28;20452;-72
2023/05/10 01:00:02;;;;;;;1.40;0.50;;;13.70;99.90;;;;;;5110659;28;20558;-72
2023/05/10 01:02:29;;;;;;;1.40;0.40;;;13.70;99.90;;;;;;5111176;28;20866;-72
2023/05/10 01:04:58;;;;;;;1.30;0.40;;;13.70;99.90;;;;;;5110957;28;20799;-73
2023/05/10 01:07:24;;;;;;;1.30;0.40;;;13.70;99.90;;;;;;5111333;28;20886;-73
2023/05/10 01:13:14;;;;;;;1.30;0.40;;;13.70;99.90;;;;;;5111209;28;20422;-73
2023/05/10 01:15:41;;;;;;;1.30;0.40;;;13.60;99.90;;;;;;5110697;28;20860;-72
2023/05/10 01:18:10;;;;;;;1.30;0.40;;;13.90;99.90;;;;;;5110848;28;20445;-72
2023/05/10 01:20:44;;;;;;;1.30;0.40;;;14.10;99.90;;;;;;5110607;28;20439;-72
2023/05/10 01:23:34;;;;;;;1.40;0.50;;;14.20;99.90;;;;;;5106619;28;20467;-73
2023/05/10 01:26:34;;;;;;;1.40;0.50;;;14.20;99.90;;;;;;5110523;28;20443;-73
2023/05/10 01:29:25;;;;;;;1.40;0.40;;;14.20;99.90;;;;;;5110966;28;20469;-73
2023/05/10 01:32:28;;;;;;;1.40;0.50;;;14.30;99.90;;;;;;5110326;28;20444;-73
2023/05/10 01:35:01;;;;;;;1.30;0.40;;;14.40;99.90;;;;;;5099348;28;20452;-73
2023/05/10 01:37:37;;;;;;;1.30;0.50;;;14.20;99.90;;;;;;5110634;28;20492;-73
2023/05/10 01:40:12;;;;;;;1.30;0.40;;;14.10;99.90;;;;;;5109745;28;20463;-73
2023/05/10 01:42:47;;;;;;;1.30;0.40;;;14.10;99.90;;;;;;5097089;28;20470;-72
2023/05/10 01:45:22;;;;;;;1.50;0.60;;;14.00;99.90;;;;;;5110975;28;20444;-73
2023/05/10 01:47:59;;;;;;;1.50;0.60;;;14.00;99.90;;;;;;5110696;28;20447;-73
2023/05/10 01:50:28;;;;;;;1.30;0.50;;;14.00;99.90;;;;;;5096841;28;20450;-73
2023/05/10 01:52:59;;;;;;;1.30;0.50;;;13.90;99.90;;;;;;5110002;28;20865;-73
2023/05/10 01:55:29;;;;;;;1.30;0.50;;;13.80;99.90;;;;;;5111021;28;20448;-73
2023/05/10 01:58:02;;;;;;;1.40;0.50;;;13.80;99.90;;;;;;5109706;28;20455;-72
2023/05/10 02:00:31;;;;;;;1.37;0.53;;;13.70;99.90;;;;;;5110366;28;20444;-73
2023/05/10 02:03:02;;;;;;;1.50;0.53;;;13.80;99.90;;;;;;5109882;28;20479;-72
2023/05/10 02:05:32;;;;;;;1.30;0.40;;;13.70;99.90;;;;;;5110634;28;20443;-72
2023/05/10 02:08:00;;;;;;;1.30;0.40;;;13.60;99.90;;;;;;5109559;28;20539;-72
2023/05/10 02:10:28;;;;;;;1.40;0.50;;;13.50;99.90;;;;;;5110423;28;20444;-73
2023/05/10 02:12:55;;;;;;;1.40;0.60;;;13.60;99.90;;;;;;5109937;28;20534;-73
2023/05/10 02:15:25;;;;;;;1.40;0.50;;;13.60;99.90;;;;;;5110191;28;20444;-72
2023/05/10 02:17:55;;;;;;;1.40;0.50;;;13.60;99.90;;;;;;5109481;28;21010;-73
2023/05/10 02:20:24;;;;;;;5.10;0.60;;;13.60;99.90;;;;;;5110161;28;20802;-73
2023/05/10 02:22:53;;;;;;;1.30;0.50;;;13.60;99.90;;;;;;5109498;28;20487;-73
2023/05/10 02:25:22;;;;;;;1.40;0.50;;;13.50;99.90;;;;;;5110450;28;20459;-72
2023/05/10 02:27:49;;;;;;;1.30;0.40;;;13.40;99.90;;;;;;5109617;28;20587;-73
2023/05/10 02:30:17;;;;;;;1.63;0.80;;;13.20;99.90;;;;;;5110383;28;20827;-72
2023/05/10 02:32:45;;;;;;;1.40;0.47;;;13.30;99.90;;;;;;5109989;28;20454;-73
2023/05/10 02:35:13;;;;;;;1.30;0.40;;;13.40;99.90;;;;;;5110717;28;20474;-72
2023/05/10 02:37:41;;;;;;;1.30;0.40;;;13.40;99.90;;;;;;5109612;28;20796;-71
2023/05/10 02:40:09;;;;;;;1.40;0.50;;;13.40;99.90;;;;;;5109969;28;20448;-72
2023/05/10 02:42:38;;;;;;;1.40;0.50;;;13.20;99.90;;;;;;5110251;28;20451;-71
2023/05/10 02:45:09;;;;;;;1.40;0.40;;;13.30;99.90;;;;;;5109867;28;20448;-73
2023/05/10 02:47:36;;;;;;;1.57;0.60;;;13.20;99.90;;;;;;5110030;28;20458;-73
2023/05/10 02:50:04;;;;;;;1.40;0.70;;;13.20;99.90;;;;;;5096523;28;20452;-73
2023/05/10 02:52:43;;;;;;;1.40;0.40;;;13.20;99.90;;;;;;5109947;28;20492;-73
2023/05/10 02:55:12;;;;;;;1.30;0.50;;;13.40;99.90;;;;;;5113410;28;20443;-73
2023/05/10 02:57:45;;;;;;;1.30;0.40;;;13.50;99.90;;;;;;5113815;28;20447;-73
2023/05/10 03:00:12;;;;;;;1.60;0.60;;;13.40;99.90;;;;;;5113587;28;20930;-74
2023/05/10 03:02:39;;;;;;;1.30;0.50;;;13.30;99.90;;;;;;5112917;28;20447;-73
2023/05/10 03:05:06;;;;;;;1.40;0.50;;;13.30;99.90;;;;;;5113885;28;20443;-73
2023/05/10 03:07:34;;;;;;;1.37;0.47;;;13.50;99.90;;;;;;5113792;28;20503;-74
2023/05/10 03:10:03;;;;;;;1.40;0.60;;;13.70;99.90;;;;;;5113339;28;20471;-74
2023/05/10 03:12:42;;;;;;;1.40;0.50;;;13.60;99.90;;;;;;5114158;28;20439;-73
2023/05/10 03:15:18;;;;;;;1.40;0.50;;;13.40;99.90;;;;;;5113990;28;20948;-73
2023/05/10 03:17:49;;;;;;;1.30;0.50;;;13.30;99.90;;;;;;5113393;28;20439;-74
2023/05/10 03:20:22;;;;;;;1.40;0.57;;;13.20;99.90;;;;;;5113587;28;20435;-74
2023/05/10 03:22:52;;;;;;;1.50;0.50;;;13.20;99.90;;;;;;5112478;28;20505;-74
2023/05/10 03:25:22;;;;;;;1.83;0.70;;;13.40;99.90;;;;;;5114014;28;20451;-74
2023/05/10 03:27:50;;;;;;;1.40;0.50;;;13.40;99.90;;;;;;5112968;28;20440;-73
2023/05/10 03:30:17;;;;;;;1.60;0.53;;;13.50;99.90;;;;;;5113483;28;20439;-75
2023/05/10 03:32:44;;;;;;;1.33;0.47;;;13.50;99.90;;;;;;5114061;27;20439;-73
2023/05/10 03:35:13;;;;;;;1.40;0.50;;;13.50;99.90;;;;;;5113457;28;20447;-73
2023/05/10 03:37:40;;;;;;;1.40;0.60;;;13.40;99.90;;;;;;5112618;28;20455;-73
2023/05/10 03:40:08;;;;;;;1.50;0.50;;;13.40;99.90;;;;;;5112831;28;20448;-74
2023/05/10 03:42:36;;;;;;;1.70;0.70;;;13.30;99.90;;;;;;5113431;28;20439;-74
2023/05/10 03:45:03;;;;;;;1.50;0.50;;;13.20;99.90;;;;;;5113471;28;20595;-74
2023/05/10 03:47:30;;;;;;;1.50;0.63;;;13.20;99.90;;;;;;5113114;28;20539;-74
2023/05/10 03:49:57;;;;;;;1.70;0.80;;;13.20;99.90;;;;;;5112375;28;20505;-74
2023/05/10 03:52:23;;;;;;;2.10;0.70;;;13.20;99.90;;;;;;5112979;28;20450;-75
2023/05/10 03:54:50;;;;;;;1.67;0.60;;;13.30;99.90;;;;;;5112445;28;20456;-73
2023/05/10 03:57:17;;;;;;;1.30;0.50;;;13.10;99.90;;;;;;5112843;28;20444;-74
2023/05/10 03:59:45;;;;;;;1.40;0.60;;;13.10;99.90;;;;;;5111789;28;20452;-73
2023/05/10 04:02:12;;;;;;;1.60;0.50;;;13.00;99.90;;;;;;5113113;28;20452;-73
2023/05/10 04:04:39;;;;;;;1.93;0.60;;;13.10;99.90;;;;;;5112189;28;20479;-71
2023/05/10 04:07:05;;;;;;;1.50;0.60;;;13.00;99.90;;;;;;5112191;28;20448;-73
2023/05/10 04:09:32;;;;;;;1.50;0.60;;;13.10;99.90;;;;;;5111858;28;20475;-74
2023/05/10 04:12:00;;;;;;;2.57;0.83;;;13.20;99.90;;;;;;5111726;28;20448;-73
2023/05/10 04:14:27;;;;;;;2.10;1.00;;;13.30;99.90;;;;;;5112722;28;20460;-73
2023/05/10 04:16:55;;;;;;;1.50;0.73;;;13.40;99.90;;;;;;5111655;28;20463;-73
2023/05/10 04:19:22;;;;;;;1.50;0.63;;;13.40;99.90;;;;;;5111892;28;20701;-73
2023/05/10 04:21:49;;;;;;;1.50;0.60;;;13.30;99.90;;;;;;5111354;28;20817;-72
2023/05/10 04:24:16;;;;;;;1.60;0.60;;;13.30;99.90;;;;;;5112745;28;20484;-73
2023/05/10 04:26:42;;;;;;;1.40;0.63;;;13.30;99.90;;;;;;5112050;28;20530;-74
2023/05/10 04:29:09;;;;;;;2.10;1.10;;;13.30;99.90;;;;;;5112332;28;20444;-75
2023/05/10 04:31:36;;;;;;;1.60;0.93;;;13.30;99.90;;;;;;5112080;28;20460;-75
2023/05/10 04:34:04;;;;;;;1.90;1.03;;;13.20;99.90;;;;;;5111362;28;20455;-75
2023/05/10 04:36:32;;;;;;;1.53;0.60;;;13.10;99.90;;;;;;5112059;28;20454;-74
2023/05/10 04:38:59;;;;;;;1.70;0.83;;;13.30;99.90;;;;;;5111762;28;20800;-74
2023/05/10 04:41:26;;;;;;;1.47;0.80;;;13.40;99.90;;;;;;5112237;28;20443;-74
2023/05/10 04:43:52;;;;;;;1.80;0.67;;;13.30;99.90;;;;;;5111658;28;20852;-75
2023/05/10 04:46:19;;;;;;;1.40;0.60;;;13.40;99.90;;;;;;5112095;28;20946;-74
2023/05/10 04:48:46;;;;;;;1.60;0.67;;;13.30;99.90;;;;;;5106394;28;20448;-74
2023/05/10 04:51:14;;;;;;;2.73;2.53;;;13.20;99.90;;;;;;5103424;28;20539;-74
2023/05/10 04:53:41;;;;;;;2.00;0.80;;;13.30;99.90;;;;;;5111296;28;20447;-72
2023/05/10 04:56:08;;;;;;;1.73;0.83;;;13.50;99.90;;;;;;5112211;28;20440;-72
2023/05/10 04:58:35;;;;;;;2.57;1.40;;;13.40;99.90;;;;;;5112191;28;20448;-76
2023/05/10 05:01:07;;;;;;;2.20;0.73;;;13.40;99.90;;;;;;5111573;28;21013;-75
2023/05/10 05:03:33;;;;;;;1.50;0.60;;;13.30;99.90;;;;;;5112126;28;20468;-74
2023/05/10 05:06:00;;;;;;;5.00;0.80;;;13.30;99.90;;;;;;5111506;28;20451;-74
2023/05/10 05:08:28;;;;;;;1.83;1.07;;;13.50;99.90;;;;;;5111411;28;20490;-73
2023/05/10 05:10:55;;;;;;;2.77;0.80;;;13.50;99.90;;;;;;5110948;28;20448;-74
2023/05/10 05:13:22;;;;;;;1.50;0.50;;;13.50;99.90;;;;;;5111776;28;20799;-74
2023/05/10 05:15:49;;;;;;;1.60;0.80;;;13.60;99.90;;;;;;5111249;28;20444;-74
2023/05/10 05:18:15;;;;;;;1.50;0.63;;;13.80;99.90;;;;;;5111527;28;20444;-73
2023/05/10 05:20:42;;;;;;;1.60;0.70;;;14.00;99.90;;;;;;5110121;28;20448;-73
2023/05/10 05:23:09;;;;;;;1.50;0.60;;;13.90;99.90;;;;;;5111151;28;20464;-73
2023/05/10 05:25:37;;;;;;;1.40;0.60;;;13.90;99.90;;;;;;5110310;28;20487;-73
2023/05/10 05:28:04;;;;;;;2.03;0.80;;;14.00;99.90;;;;;;5104735;28;20517;-73
2023/05/10 05:30:31;;;;;;;2.30;2.10;;;14.10;99.90;;;;;;5110922;28;20474;-73
2023/05/10 05:32:58;;;;;;;1.80;0.70;;;14.10;99.90;;;;;;5106840;28;20451;-73
2023/05/10 05:35:25;;;;;;;1.93;0.63;;;14.20;99.90;;;;;;5110826;28;20444;-74
2023/05/10 05:37:52;;;;;;;1.60;0.70;;;14.20;99.90;;;;;;5110651;28;20451;-73
2023/05/10 05:40:20;;;;;;;1.50;0.50;;;14.20;99.90;;;;;;5110449;28;20540;-73
2023/05/10 05:42:48;;;;;;;1.97;0.80;;;14.10;99.90;;;;;;5110865;28;20528;-74
2023/05/10 05:45:15;;;;;;;1.60;0.60;;;14.10;99.90;;;;;;5110613;28;20475;-74
2023/05/10 05:47:42;;;;;;;1.70;0.70;;;14.20;99.90;;;;;;5110647;28;20816;-74
2023/05/10 05:50:09;;;;;;;1.60;0.60;;;14.30;99.90;;;;;;5109457;28;20461;-74
2023/05/10 05:52:36;;;;;;;2.20;0.87;;;14.30;99.90;;;;;;5110578;28;20962;-74
2023/05/10 05:55:04;;;;;;;1.50;0.77;;;14.40;99.90;;;;;;5110033;28;20946;-74
2023/05/10 05:57:31;;;;;;;1.40;0.63;;;14.30;99.90;;;;;;5110389;28;20957;-74
2023/05/10 05:59:59;;;;;;;2.50;0.97;;;14.30;99.90;;;;;;5109201;28;20495;-74
2023/05/10 06:02:26;;;;;;;1.60;0.70;;;14.50;99.90;;;;;;5110418;28;20440;-74
2023/05/10 06:04:52;;;;;;;1.80;0.70;;;14.50;99.90;;;;;;5109691;28;20482;-74
2023/05/10 06:07:20;;;;;;;1.60;0.77;;;14.60;99.90;;;;;;5110206;28;20455;-74
2023/05/10 06:09:46;;;;;;;2.00;0.90;;;14.50;99.90;;;;;;5109948;28;20483;-77
2023/05/10 06:12:13;;;;;;;1.30;0.50;;;14.60;99.90;;;;;;5109210;28;20535;-75
2023/05/10 06:14:40;;;;;;;1.60;0.67;;;14.50;99.90;;;;;;5108837;28;20531;-74
2023/05/10 06:17:08;;;;;;;2.40;0.83;;;14.60;99.90;;;;;;5110714;28;20451;-75
2023/05/10 06:19:35;;;;;;;1.73;1.10;;;14.50;99.90;;;;;;5109407;28;20451;-75
2023/05/10 06:22:02;;;;;;;1.40;0.60;;;14.50;99.90;;;;;;5110283;28;20957;-75
2023/05/10 06:24:29;;;;;;;2.00;1.10;;;14.50;99.90;;;;;;5110009;28;20475;-75
2023/05/10 06:26:56;;;;;;;1.67;0.70;;;14.50;99.90;;;;;;5102865;28;20467;-75
2023/05/10 06:29:22;;;;;;;1.60;0.73;;;14.60;99.90;;;;;;5112056;28;20444;-75
2023/05/10 06:31:49;;;;;;;1.57;0.60;;;14.60;99.90;;;;;;5114219;28;20458;-75
2023/05/10 06:34:17;;;;;;;1.70;0.90;;;14.70;99.90;;;;;;5113445;28;20484;-72
2023/05/10 06:36:44;;;;;;;1.70;1.00;;;14.60;99.90;;;;;;5113310;28;20448;-75
2023/05/10 06:39:12;;;;;;;2.30;0.80;;;14.80;99.90;;;;;;5113897;28;20462;-75
2023/05/10 06:41:38;;;;;;;2.07;0.80;;;14.70;99.90;;;;;;5112057;28;20452;-75
2023/05/10 06:44:05;;;;;;;2.90;0.77;;;14.60;99.90;;;;;;5113325;28;20577;-75
2023/05/10 06:46:32;;;;;;;1.80;0.90;;;14.60;99.90;;;;;;5113629;28;20452;-76
2023/05/10 06:48:59;;;;;;;1.53;0.63;;;14.60;99.90;;;;;;5112551;28;20566;-73
2023/05/10 06:51:27;;;;;;;1.70;0.80;;;14.50;99.90;;;;;;5113471;28;20465;-75
2023/05/10 06:53:54;;;;;;;2.13;1.00;;;14.30;99.90;;;;;;5112478;28;20906;-76
2023/05/10 06:56:21;;;;;;;2.50;1.03;;;14.20;99.90;;;;;;5113041;28;20942;-76
2023/05/10 06:58:48;;;;;;;1.53;0.90;;;14.40;99.90;;;;;;5113577;27;21221;-75
2023/05/10 07:01:15;;;;;;;1.50;0.60;;;14.40;99.90;;;;;;5113209;28;20448;-75
2023/05/10 07:03:41;;;;;;;1.60;0.70;;;14.30;99.90;;;;;;5113431;28;20535;-75
2023/05/10 07:06:08;;;;;;;2.00;0.77;;;14.50;99.90;;;;;;5113774;28;20487;-75
2023/05/10 07:08:36;;;;;;;1.60;0.80;;;14.50;99.90;;;;;;5111634;28;20837;-75
2023/05/10 07:11:04;;;;;;;1.80;1.10;;;14.60;99.90;;;;;;5111817;28;20458;-76
2023/05/10 07:13:32;;;;;;;1.53;0.77;;;14.70;99.90;;;;;;5113988;28;20444;-76
2023/05/10 07:15:59;;;;;;;1.50;0.70;;;14.70;99.90;;;;;;5111937;28;21300;-76
2023/05/10 07:18:26;;;;;;;1.50;0.70;;;14.80;99.90;;;;;;5117127;27;20447;-76
2023/05/10 07:20:52;;;;;;;1.60;0.83;;;15.00;99.90;;;;;;5113144;28;20458;-76
2023/05/10 07:23:19;;;;;;;1.90;1.10;;;15.00;99.90;;;;;;5113431;28;20451;-76
2023/05/10 07:25:48;;;;;;;2.07;1.00;;;15.10;99.90;;;;;;5111672;28;20524;-75
2023/05/10 07:28:16;;;;;;;2.27;0.80;;;15.10;99.90;;;;;;5113283;28;20454;-75
2023/05/10 07:30:43;;;;;;;5.93;0.80;;;15.10;99.90;;;;;;5108466;28;20459;-74
2023/05/10 07:33:11;;;;;;;1.80;0.90;;;15.30;99.90;;;;;;5114037;28;20451;-74
2023/05/10 07:35:38;;;;;;;2.93;1.30;;;15.20;99.90;;;;;;5112533;28;20451;-75
2023/05/10 07:38:04;;;;;;;2.60;1.53;;;15.30;99.90;;;;;;5113829;28;20890;-75
2023/05/10 07:40:32;;;;;;;2.03;0.80;;;15.50;99.90;;;;;;5113457;28;20446;-75
2023/05/10 07:43:01;;;;;;;1.80;0.93;;;15.40;99.90;;;;;;5112901;28;20934;-75
2023/05/10 07:45:28;;;;;;;1.93;0.80;;;15.50;99.90;;;;;;5112879;28;20471;-75
2023/05/10 07:47:55;;;;;;;1.80;0.73;;;15.60;99.90;;;;;;5112012;28;20455;-76
2023/05/10 07:50:21;;;;;;;1.40;0.60;;;15.60;99.90;;;;;;5109570;28;20440;-76
2023/05/10 07:52:48;;;;;;;3.23;0.73;;;15.50;99.90;;;;;;5112578;28;20858;-80
2023/05/10 07:55:15;;;;;;;1.40;0.60;;;15.70;99.90;;;;;;5112551;28;20451;-76
2023/05/10 07:57:43;;;;;;;1.40;0.60;;;15.70;99.90;;;;;;5110957;28;20452;-76
2023/05/10 08:00:14;;;;;;;2.40;1.00;;;15.80;99.90;;;;;;5112104;28;21006;-76
2023/05/10 08:02:41;;;;;;;1.60;0.70;;;16.10;99.90;;;;;;5104437;28;20444;-74
2023/05/10 08:05:09;;;;;;;1.60;0.60;;;15.90;99.90;;;;;;5112463;28;20516;-77
2023/05/10 08:07:36;;;;;;;1.60;0.73;;;15.70;98.30;;;;;;5112698;28;20542;-77
2023/05/10 08:10:02;;;;;;;1.40;0.60;;;15.80;1.00;;;;;;5110861;28;20840;-75
2023/05/10 08:12:30;;;;;;;1.50;0.80;;;15.70;99.90;;;;;;5112253;28;20448;-73
2023/05/10 08:14:56;;;;;;;1.77;0.70;;;15.60;78.80;;;;;;5111582;28;20459;-73
2023/05/10 08:17:25;;;;;;;1.40;0.60;;;15.80;1.00;;;;;;5112631;28;20448;-72
2023/05/10 08:19:51;;;;;;;1.90;0.60;;;15.60;99.90;;;;;;5110356;28;20935;-73
2023/05/10 08:22:18;;;;;;;1.50;0.60;;;15.90;99.90;;;;;;5111713;28;20447;-73
2023/05/10 08:24:45;;;;;;;1.40;0.60;;;15.90;99.90;;;;;;5111268;28;20505;-73
2023/05/10 08:27:12;;;;;;;1.50;0.60;;;15.80;27.40;;;;;;5112233;28;20454;-72
2023/05/10 08:29:39;;;;;;;1.30;0.57;;;15.70;1.00;;;;;;5110433;28;20477;-69
2023/05/10 08:32:06;;;;;;;1.90;0.80;;;15.70;1.00;;;;;;5112015;28;20880;-74
2023/05/10 08:34:34;;;;;;;1.40;0.60;;;15.80;1.00;;;;;;5112124;28;20453;-75
2023/05/10 08:37:01;;;;;;;3.23;1.37;;;15.90;99.90;;;;;;5111844;28;20479;-78
2023/05/10 08:39:28;;;;;;;1.40;0.50;;;15.80;1.00;;;;;;5111796;28;20448;-74
2023/05/10 08:41:58;;;;;;;1.90;0.70;;;15.80;1.00;;;;;;5111811;28;20883;-75
2023/05/10 08:44:26;;;;;;;1.40;0.60;;;15.80;1.00;;;;;;5112756;28;20439;-75
2023/05/10 08:46:55;;;;;;;1.40;0.80;;;15.80;1.00;;;;;;5110105;28;20440;-75
2023/05/10 08:49:23;;;;;;;1.30;0.50;;;15.90;99.90;;;;;;5101740;28;20446;-74
2023/05/10 08:51:55;;;;;;;1.30;0.60;;;15.80;99.90;;;;;;5110435;28;20448;-72
2023/05/10 08:54:22;;;;;;;1.30;0.60;;;15.80;99.90;;;;;;5121439;27;20526;-73
2023/05/10 08:56:49;;;;;;;1.30;0.60;;;15.90;99.90;;;;;;5112591;27;20496;-73
2023/05/10 08:59:16;;;;;;;1.33;0.60;;;15.90;99.90;;;;;;5108482;28;20466;-77
2023/05/10 09:01:45;;;;;;;1.30;0.50;;;16.10;1.00;;;;;;5111540;28;20452;-78
2023/05/10 09:04:12;;;;;;;1.30;0.53;;;16.10;1.00;;;;;;5112023;28;20546;-74
2023/05/10 09:06:40;;;;;;;1.30;0.50;;;16.20;1.00;;;;;;5111665;28;20533;-74
2023/05/10 09:09:08;;;;;;;1.40;0.60;;;16.40;1.00;;;;;;5111484;28;20506;-73
2023/05/10 09:11:35;;;;;;;1.47;0.50;;;16.40;1.00;;;;;;5111813;28;20978;-77
2023/05/10 09:14:02;;;;;;;1.30;0.60;;;16.30;1.00;;;;;;5112283;28;20862;-75
2023/05/10 09:16:29;;;;;;;1.30;0.50;;;16.30;67.80;;;;;;5111999;28;20455;-75
2023/05/10 09:18:56;;;;;;;1.20;0.40;;;16.20;99.90;;;;;;5110826;28;20485;-75
2023/05/10 09:21:22;;;;;;;1.30;0.53;;;16.30;99.90;;;;;;5111636;28;20458;-73
2023/05/10 09:23:50;;;;;;;1.53;0.60;;;16.20;99.90;;;;;;5111165;28;20817;-72
2023/05/10 09:26:23;;;;;;;1.93;0.80;;;16.10;1.00;;;;;;5111347;28;20532;-72
2023/05/10 09:28:54;;;;;;;1.20;0.40;;;15.70;1.00;;;;;;5110573;28;20440;-72
2023/05/10 09:31:21;;;;;;;1.50;0.70;;;15.70;1.00;;;;;;5111171;28;20452;-72
2023/05/10 09:33:49;;;;;;;1.97;0.60;;;15.70;1.00;;;;;;5108479;28;20446;-74
2023/05/10 09:36:16;;;;;;;1.30;0.60;;;15.90;1.00;;;;;;5111605;28;20463;-72
2023/05/10 09:38:47;;;;;;;2.10;1.30;;;16.00;1.00;;;;;;5109609;28;20452;-72
2023/05/10 09:41:19;;;;;;;1.30;0.50;;;16.20;99.90;;;;;;5107149;28;20957;-71
2023/05/10 09:43:47;;;;;;;1.33;0.60;;;16.20;1.00;;;;;;5111200;27;20438;-72
2023/05/10 09:46:13;;;;;;;1.40;0.60;;;16.30;1.00;;;;;;5120669;27;20840;-72
2023/05/10 09:48:44;;;;;;;1.30;0.60;;;16.70;99.90;;;;;;5115935;27;20441;-72
2023/05/10 09:51:11;;;;;;;1.50;0.50;;;17.00;1.00;;;;;;5110543;28;20439;-72
2023/05/10 09:53:38;;;;;;;1.20;0.50;;;17.20;1.00;;;;;;5109783;28;20448;-72
2023/05/10 09:56:04;;;;;;;2.13;1.23;;;17.30;94.80;;;;;;5110822;28;20444;-72
2023/05/10 09:58:37;;;;;;;1.47;0.63;;;17.20;1.00;;;;;;5109907;28;20514;-72
2023/05/10 10:01:05;;;;;;;1.20;0.50;;;17.20;1.00;;;;;;5110873;28;20436;-72
2023/05/10 10:03:31;;;;;;;1.20;0.40;;;17.10;1.00;;;;;;5110056;28;20452;-73
2023/05/10 10:05:58;;;;;;;1.30;0.60;;;17.10;1.00;;;;;;5108193;28;20756;-72
2023/05/10 10:08:25;;;;;;;1.20;0.50;;;17.20;1.00;;;;;;5111791;28;20579;-72
2023/05/10 10:10:52;;;;;;;1.50;0.70;;;17.30;1.00;;;;;;5112310;28;20447;-73
2023/05/10 10:13:19;;;;;;;1.20;0.50;;;17.30;1.00;;;;;;5108791;28;20451;-72
2023/05/10 10:15:50;;;;;;;1.30;0.60;;;17.30;1.00;;;;;;5112286;28;20821;-72
2023/05/10 10:18:18;;;;;;;2.50;0.50;;;17.40;1.00;;;;;;5111992;28;20893;-72
2023/05/10 10:20:45;;;;;;;1.63;0.67;;;17.60;1.00;;;;;;5111951;28;20458;-71
2023/05/10 10:23:12;;;;;;;1.20;0.50;;;17.60;1.00;;;;;;5112664;28;20447;-71
2023/05/10 10:25:39;;;;;;;1.20;0.50;;;17.70;1.00;;;;;;5112023;28;20483;-71
2023/05/10 10:28:21;;;;;;;1.40;0.60;;;17.80;99.90;;;;;;5112718;28;20870;-73
2023/05/10 10:30:52;;;;;;;1.20;0.50;;;17.60;99.90;;;;;;5111611;28;20446;-71
2023/05/10 10:33:41;;;;;;;2.23;0.77;;;17.60;99.90;;;;;;5111483;28;20432;-71
2023/05/10 10:36:08;;;;;;;1.20;0.60;;;17.90;99.90;;;;;;5111035;28;20443;-72
2023/05/10 10:38:57;;;;;;;1.20;0.40;;;17.80;99.90;;;;;;5110819;28;20872;-72
2023/05/10 10:41:30;;;;;;;1.30;0.50;;;17.60;99.90;;;;;;5108995;28;20463;-72
2023/05/10 10:44:43;;;;;;;1.70;0.87;;;17.70;99.90;;;;;;5109395;28;20444;-72
2023/05/10 10:47:27;;;;;;;1.40;0.50;;;17.40;99.90;;;;;;5029219;28;20536;-72
2023/05/10 10:50:04;;;;;;;1.30;0.53;;;17.10;99.90;;;;;;5094227;28;20465;-71
2023/05/10 10:52:33;;;;;;;1.20;0.50;;;17.10;99.90;;;;;;5108340;28;20455;-72
2023/05/10 10:55:03;;;;;;;1.70;0.60;;;16.80;1.00;;;;;;5110817;28;20435;-71
2023/05/10 10:57:33;;;;;;;1.30;0.57;;;;;;;;;;5111849;28;20452;-72
2023/05/10 11:00:19;;;;;;;1.83;0.83;;;;;;;;;;5110776;28;20447;-70
2023/05/10 11:02:48;;;;;;;1.20;0.50;;;;;;;;;;5106070;28;20799;-72
2023/05/10 11:05:40;;;;;;;1.20;0.40;;;;;;;;;;5110841;28;20671;-71
2023/05/10 11:08:21;;;;;;;1.20;0.50;;;16.50;99.90;;;;;;5089232;28;20462;-71
2023/05/10 11:10:53;;;;;;;1.20;0.50;;;15.50;99.90;;;;;;5110300;28;20874;-71
2023/05/10 11:13:30;;;;;;;1.30;0.50;;;15.60;1.00;;;;;;5111023;28;20453;-73
2023/05/10 11:15:58;;;;;;;1.20;0.50;;;15.70;99.90;;;;;;5106812;28;20450;-71
2023/05/10 11:18:29;;;;;;;1.27;0.60;;;15.60;99.90;;;;;;5110615;28;20443;-71
2023/05/10 11:21:02;;;;;;;1.30;0.50;;;15.70;99.90;;;;;;5110693;28;20448;-71
2023/05/10 11:23:33;;;;;;;7.40;0.70;;;16.00;99.90;;;;;;5110567;28;20497;-71
2023/05/10 11:26:01;;;;;;;1.20;0.50;;;16.10;99.90;;;;;;5110209;28;20474;-71
2023/05/10 11:28:28;;;;;;;1.30;0.60;;;16.00;99.90;;;;;;5110458;28;20456;-72
2023/05/10 11:30:55;;;;;;;1.20;0.60;;;16.10;99.90;;;;;;5109399;28;20991;-73
2023/05/10 11:33:22;;;;;;;2.17;0.50;;;16.40;99.90;;;;;;5109901;28;20446;-72
2023/05/10 11:35:50;;;;;;;1.20;0.50;;;16.70;99.90;;;;;;5110302;28;20462;-73
2023/05/10 11:38:17;;;;;;;1.20;0.50;;;16.70;99.90;;;;;;5109435;28;20459;-72
2023/05/10 11:40:44;;;;;;;1.30;0.60;;;16.80;99.90;;;;;;5110789;28;20447;-72
2023/05/10 11:43:12;;;;;;;1.20;0.50;;;16.70;99.90;;;;;;5107956;28;20455;-73
2023/05/10 11:45:38;;;;;;;1.40;0.50;;;16.50;99.90;;;;;;5108571;28;20479;-72
2023/05/10 11:48:05;;;;;;;1.20;0.50;;;16.40;99.90;;;;;;5108831;28;20459;-73
2023/05/10 11:50:32;;;;;;;1.20;0.50;;;16.40;99.90;;;;;;5106258;28;20459;-72
2023/05/10 11:53:01;;;;;;;1.40;0.67;;;16.30;99.90;;;;;;5103249;28;20443;-73
2023/05/10 11:55:29;;;;;;;1.40;0.60;;;16.30;99.90;;;;;;5110270;28;20451;-73
2023/05/10 11:58:00;;;;;;;4.80;2.30;;;16.20;99.90;;;;;;5108638;28;20464;-72
2023/05/10 12:00:27;;;;;;;1.40;0.63;;;16.10;99.90;;;;;;5109046;28;20439;-72
2023/05/10 12:02:54;;;;;;;1.50;0.60;;;16.20;99.90;;;;;;5108289;28;20447;-72
2023/05/10 12:05:21;;;;;;;1.30;0.70;;;16.20;99.90;;;;;;5116769;27;20450;-72
2023/05/10 12:07:48;;;;;;;2.50;0.80;;;16.20;99.90;;;;;;5115082;27;20452;-72
2023/05/10 12:10:17;;;;;;;1.30;0.50;;;16.20;99.90;;;;;;5109816;28;21010;-71
2023/05/10 12:12:45;;;;;;;1.80;0.60;;;16.60;99.90;;;;;;5107946;28;20508;-70
2023/05/10 12:15:13;;;;;;;1.97;0.60;;;16.80;99.90;;;;;;5110082;28;21308;-72
2023/05/10 12:17:40;;;;;;;1.80;0.60;;;16.70;99.90;;;;;;5109562;28;20463;-72
2023/05/10 12:20:18;;;;;;;1.67;0.70;;;16.80;99.90;;;;;;5109981;28;20470;-72
2023/05/10 12:22:50;;;;;;;1.30;0.50;;;16.80;99.90;;;;;;5108211;28;20447;-72
2023/05/10 12:25:19;;;;;;;1.30;0.50;;;16.60;99.90;;;;;;5110260;28;20452;-72
2023/05/10 12:27:52;;;;;;;1.40;0.70;;;16.80;99.90;;;;;;5108456;28;20483;-72
2023/05/10 12:30:23;;;;;;;1.30;0.60;;;16.80;99.90;;;;;;5109727;28;20469;-72
2023/05/10 12:32:50;;;;;;;2.17;0.60;;;17.10;99.90;;;;;;5108710;28;20471;-72
2023/05/10 12:35:20;;;;;;;1.30;0.70;;;17.10;99.90;;;;;;5109188;28;20439;-72
2023/05/10 12:37:47;;;;;;;1.30;0.50;;;16.70;99.90;;;;;;5108686;28;20483;-73
2023/05/10 12:40:14;;;;;;;3.50;1.97;;;17.00;99.90;;;;;;5109619;28;20447;-72
2023/05/10 12:42:44;;;;;;;4.10;1.20;;;17.00;99.90;;;;;;5107460;28;20451;-71
2023/05/10 12:45:12;;;;;;;1.50;0.90;;;16.90;99.90;;;;;;5105726;28;20559;-73
2023/05/10 12:47:39;;;;;;;1.50;0.60;;;16.60;99.90;;;;;;5108523;27;20484;-73
2023/05/10 12:50:07;;;;;;;1.93;0.70;;;16.50;99.90;;;;;;5107250;28;20527;-71
2023/05/10 12:52:33;;;;;;;1.83;0.57;;;16.40;99.90;;;;;;5106172;28;20452;-73
2023/05/10 12:55:01;;;;;;;1.80;0.60;;;16.60;99.90;;;;;;5107915;28;20439;-71
2023/05/10 12:57:28;;;;;;;1.50;0.60;;;16.60;99.90;;;;;;5109107;28;20535;-72
2023/05/10 12:59:56;;;;;;;1.20;0.50;;;16.40;99.90;;;;;;5108562;28;20455;-73
2023/05/10 13:02:23;;;;;;;1.40;0.70;;;16.20;99.90;;;;;;5108761;28;20448;-71